Time;durP1;ratioP1;P1;durP2;ratioP2;P2;SDS_P1;SDS_P2;PMS_P1;PMS_P2;Temp;Humidity;BMP_temperature;BMP_pressure;BME280_temperature;BME280_humidity;BME280_pressure;Samples;Min_cycle;Max_cycle;Signal;HPM_P1;HPM_P2
2023/10/15 00:01:31;;;;;;;;;;;12.00;91.30;;;;;;5019176;28;20862;-81
2023/10/15 00:03:57;;;;;;;;;;;12.00;91.40;;;;;;5023000;28;20684;-82
2023/10/15 00:06:23;;;;;;;;;;;12.00;91.40;;;;;;5023198;28;19921;-81
2023/10/15 00:08:48;;;;;;;;;;;12.00;91.40;;;;;;5023372;28;19913;-82
2023/10/15 00:11:17;;;;;;;;;;;12.00;91.60;;;;;;5016578;28;19913;-83
2023/10/15 00:13:43;;;;;;;;;;;11.90;91.80;;;;;;5023665;28;20474;-84
2023/10/15 00:16:15;;;;;;;;;;;11.80;91.90;;;;;;5020320;28;20007;-84
2023/10/15 00:18:42;;;;;;;;;;;11.90;92.10;;;;;;5025580;28;20455;-84
2023/10/15 00:21:12;;;;;;;;;;;11.80;92.10;;;;;;5014504;28;19909;-83
2023/10/15 00:23:39;;;;;;;;;;;11.90;92.00;;;;;;5021943;28;19988;-83
2023/10/15 00:26:05;;;;;;;;;;;11.90;92.00;;;;;;5026300;28;19927;-83
2023/10/15 00:28:30;;;;;;;;;;;11.90;92.00;;;;;;5023771;28;19909;-84
2023/10/15 00:30:56;;;;;;;;;;;11.80;92.10;;;;;;5018622;28;19959;-83
2023/10/15 00:33:22;;;;;;;;;;;11.70;92.40;;;;;;5016955;28;19909;-83
2023/10/15 00:35:53;;;;;;;;;;;11.70;92.40;;;;;;5023707;28;20601;-81
2023/10/15 00:38:24;;;;;;;;;;;11.60;92.40;;;;;;5021374;28;20332;-82
2023/10/15 00:40:51;;;;;;;;;;;11.50;92.60;;;;;;5021953;28;20363;-82
2023/10/15 00:43:17;;;;;;;;;;;11.60;92.50;;;;;;5019824;28;20726;-81
2023/10/15 00:45:46;;;;;;;;;;;11.50;92.40;;;;;;5016112;28;19946;-82
2023/10/15 00:48:19;;;;;;;;;;;11.60;92.40;;;;;;5028489;28;19928;-82
2023/10/15 00:50:45;;;;;;;;;;;11.60;92.40;;;;;;5019656;28;19916;-82
2023/10/15 00:53:21;;;;;;;;;;;11.70;92.50;;;;;;5021250;28;19913;-83
2023/10/15 00:56:10;;;;;;;;;;;11.70;92.60;;;;;;5017310;28;20031;-82
2023/10/15 01:03:54;;;;;;;;;;;11.50;92.60;;;;;;5017192;28;19953;-81
2023/10/15 01:06:46;;;;;;;;;;;11.50;92.70;;;;;;5022451;28;19913;-82
2023/10/15 01:09:09;;;;;;;;;;;11.50;92.80;;;;;;5022481;28;20613;-82
2023/10/15 01:11:44;;;;;;;;;;;11.60;92.80;;;;;;5025213;28;19909;-82
2023/10/15 01:14:13;;;;;;;;;;;11.60;92.70;;;;;;5015507;28;20675;-82
2023/10/15 01:16:39;;;;;;;;;;;11.50;93.00;;;;;;5016355;28;19909;-81
2023/10/15 01:21:45;;;;;;;;;;;11.50;93.00;;;;;;5023584;28;19909;-82
2023/10/15 01:24:18;;;;;;;;;;;11.50;93.10;;;;;;5015027;28;19922;-82
2023/10/15 01:26:51;;;;;;;;;;;11.40;93.30;;;;;;5018734;28;20032;-81
2023/10/15 01:29:20;;;;;;;;;;;11.40;93.40;;;;;;5023638;28;20551;-82
2023/10/15 01:31:56;;;;;;;;;;;11.30;93.60;;;;;;5030796;28;19915;-82
2023/10/15 01:34:21;;;;;;;;;;;11.30;93.70;;;;;;5023869;28;19919;-81
2023/10/15 01:36:47;;;;;;;;;;;11.20;93.80;;;;;;5026658;28;19920;-81
2023/10/15 01:39:21;;;;;;;;;;;11.10;94.00;;;;;;5026380;28;20693;-81
2023/10/15 01:41:50;;;;;;;;;;;11.10;94.20;;;;;;5026976;28;19913;-82
2023/10/15 01:44:19;;;;;;;;;;;11.10;94.30;;;;;;5022099;28;19921;-81
2023/10/15 01:46:48;;;;;;;;;;;11.10;94.40;;;;;;5026140;28;19913;-81
2023/10/15 01:52:12;;;;;;;;;;;11.10;94.50;;;;;;5010912;28;19952;-81
2023/10/15 01:54:44;;;;;;;;;;;11.00;94.60;;;;;;5025570;28;19952;-81
2023/10/15 01:57:14;;;;;;;;;;;11.00;94.70;;;;;;5025241;28;19917;-81
2023/10/15 01:59:46;;;;;;;;;;;11.10;94.60;;;;;;5022483;28;19913;-81
2023/10/15 02:02:14;;;;;;;;;;;11.10;94.60;;;;;;5024078;28;19971;-81
2023/10/15 02:04:46;;;;;;;;;;;11.00;94.60;;;;;;5025271;28;21185;-81
2023/10/15 02:07:16;;;;;;;;;;;11.00;94.60;;;;;;5024148;28;20027;-81
2023/10/15 02:09:43;;;;;;;;;;;11.00;94.50;;;;;;5021327;28;19917;-81
2023/10/15 02:12:10;;;;;;;;;;;11.00;94.60;;;;;;5021707;28;19917;-81
2023/10/15 02:14:36;;;;;;;;;;;11.00;94.60;;;;;;5022540;28;20392;-81
2023/10/15 02:17:05;;;;;;;;;;;10.90;94.80;;;;;;5025581;28;20368;-80
2023/10/15 02:19:34;;;;;;;;;;;10.90;94.70;;;;;;5021178;28;19923;-80
2023/10/15 02:22:01;;;;;;;;;;;10.90;94.90;;;;;;5022838;28;19917;-80
2023/10/15 02:24:31;;;;;;;;;;;10.80;94.90;;;;;;5023436;28;20027;-80
2023/10/15 02:26:57;;;;;;;;;;;10.90;94.90;;;;;;5027215;28;19960;-80
2023/10/15 02:32:06;;;;;;;;;;;10.80;95.00;;;;;;5025110;28;19913;-79
2023/10/15 02:34:31;;;;;;;;;;;10.80;95.10;;;;;;5023903;28;20008;-79
2023/10/15 02:37:03;;;;;;;;;;;10.70;95.30;;;;;;5025337;28;19936;-79
2023/10/15 02:39:36;;;;;;;;;;;10.70;95.30;;;;;;5025643;28;19996;-80
2023/10/15 02:42:02;;;;;;;;;;;10.60;95.30;;;;;;5023913;28;20798;-79
2023/10/15 02:44:32;;;;;;;;;;;10.70;95.30;;;;;;5025664;28;19925;-80
2023/10/15 02:50:06;;;;;;;;;;;10.60;95.30;;;;;;5024680;28;19923;-81
2023/10/15 02:52:45;;;;;;;;;;;10.50;95.30;;;;;;5024153;28;19924;-82
2023/10/15 02:55:11;;;;;;;;;;;10.50;95.40;;;;;;5023675;28;19913;-83
2023/10/15 02:57:39;;;;;;;;;;;10.50;95.20;;;;;;5020519;28;19913;-83
2023/10/15 03:03:09;;;;;;;;;;;10.50;95.20;;;;;;5015555;28;20691;-84
2023/10/15 03:05:38;;;;;;;;;;;10.40;95.20;;;;;;5024901;28;20265;-84
2023/10/15 03:08:04;;;;;;;;;;;10.40;95.00;;;;;;5019585;28;20008;-84
2023/10/15 03:10:44;;;;;;;;;;;10.40;95.00;;;;;;5024265;28;20000;-81
2023/10/15 03:13:14;;;;;;;;;;;10.40;95.00;;;;;;5023811;28;19920;-80
2023/10/15 03:15:48;;;;;;;;;;;10.40;94.80;;;;;;5024474;28;20482;-80
2023/10/15 03:18:23;;;;;;;;;;;10.40;94.70;;;;;;5020276;28;19909;-80
2023/10/15 03:20:49;;;;;;;;;;;10.40;94.80;;;;;;5020130;28;20674;-81
2023/10/15 03:23:18;;;;;;;;;;;10.30;94.60;;;;;;5009987;28;19920;-81
2023/10/15 03:25:43;;;;;;;;;;;10.40;94.60;;;;;;5024085;28;19929;-81
2023/10/15 03:28:12;;;;;;;;;;;10.40;94.30;;;;;;5021606;28;19920;-81
2023/10/15 03:30:44;;;;;;;;;;;10.40;94.20;;;;;;5016797;28;20292;-82
2023/10/15 03:33:13;;;;;;;;;;;10.30;94.30;;;;;;5019408;28;19971;-82
2023/10/15 03:35:39;;;;;;;;;;;10.30;94.40;;;;;;5024149;28;20387;-82
2023/10/15 03:38:13;;;;;;;;;;;10.30;94.40;;;;;;5024283;28;19920;-82
2023/10/15 03:40:46;;;;;;;;;;;10.20;94.40;;;;;;5021506;28;20396;-82
2023/10/15 03:43:15;;;;;;;;;;;10.30;94.30;;;;;;5024343;28;19917;-82
2023/10/15 03:45:53;;;;;;;;;;;10.30;94.30;;;;;;5022317;28;19923;-83
2023/10/15 03:48:28;;;;;;;;;;;10.20;94.10;;;;;;5025158;28;20002;-83
2023/10/15 03:50:53;;;;;;;;;;;10.20;94.10;;;;;;5022957;28;19985;-83
2023/10/15 03:53:21;;;;;;;;;;;10.20;94.10;;;;;;5022371;28;20064;-83
2023/10/15 03:55:49;;;;;;;;;;;10.20;94.00;;;;;;5024216;28;19912;-83
2023/10/15 03:58:16;;;;;;;;;;;10.20;94.00;;;;;;5024713;28;19920;-82
2023/10/15 04:00:46;;;;;;;;;;;10.20;94.00;;;;;;5023496;28;19987;-81
2023/10/15 04:06:10;;;;;;;;;;;10.20;94.00;;;;;;5009103;28;20317;-82
2023/10/15 04:08:37;;;;;;;;;;;10.10;94.00;;;;;;5019977;28;19913;-81
2023/10/15 04:11:03;;;;;;;;;;;10.10;94.10;;;;;;5024649;28;19919;-81
2023/10/15 04:13:28;;;;;;;;;;;10.10;93.90;;;;;;5023591;28;19999;-81
2023/10/15 04:15:55;;;;;;;;;;;10.10;93.80;;;;;;5024088;28;20044;-81
2023/10/15 04:18:24;;;;;;;;;;;10.00;94.00;;;;;;5024493;28;19913;-81
2023/10/15 04:20:51;;;;;;;;;;;10.00;94.10;;;;;;5024108;28;19913;-81
2023/10/15 04:23:34;;;;;;;;;;;10.00;94.00;;;;;;5023675;28;20292;-80
2023/10/15 04:26:03;;;;;;;;;;;9.90;94.00;;;;;;5013411;28;19932;-80
2023/10/15 04:28:30;;;;;;;;;;;9.80;94.10;;;;;;5023262;28;20026;-80
2023/10/15 04:30:56;;;;;;;;;;;9.90;94.10;;;;;;5021877;28;19909;-80
2023/10/15 04:33:25;;;;;;;;;;;9.80;94.20;;;;;;5018133;28;19917;-82
2023/10/15 04:35:51;;;;;;;;;;;9.70;94.30;;;;;;5020587;28;19917;-82
2023/10/15 04:38:38;;;;;;;;;;;9.70;94.30;;;;;;5022868;28;19913;-81
2023/10/15 04:41:03;;;;;;;;;;;9.70;94.30;;;;;;5018628;28;20387;-82
2023/10/15 04:43:29;;;;;;;;;;;9.70;94.20;;;;;;5023294;28;20929;-81
2023/10/15 04:45:56;;;;;;;;;;;9.70;94.00;;;;;;5023250;28;19963;-81
2023/10/15 04:48:32;;;;;;;;;;;9.70;94.00;;;;;;5023370;28;20018;-81
2023/10/15 04:51:04;;;;;;;;;;;9.80;94.00;;;;;;5011613;28;20392;-81
2023/10/15 04:53:30;;;;;;;;;;;9.70;94.00;;;;;;5023172;28;19913;-82
2023/10/15 04:55:56;;;;;;;;;;;9.70;94.00;;;;;;5022108;28;20036;-81
2023/10/15 04:58:27;;;;;;;;;;;9.70;94.00;;;;;;5014406;28;20561;-81
2023/10/15 05:00:54;;;;;;;;;;;9.60;94.10;;;;;;5019964;28;19913;-82
2023/10/15 05:03:21;;;;;;;;;;;9.60;94.20;;;;;;5021945;28;19919;-81
2023/10/15 05:05:46;;;;;;;;;;;9.60;94.20;;;;;;5022437;28;19921;-83
2023/10/15 05:08:12;;;;;;;;;;;9.50;94.30;;;;;;5027016;28;19917;-83
2023/10/15 05:10:44;;;;;;;;;;;9.60;94.40;;;;;;5027128;28;20400;-83
2023/10/15 05:13:10;;;;;;;;;;;9.50;94.10;;;;;;5027049;28;19913;-83
2023/10/15 05:15:36;;;;;;;;;;;9.60;94.00;;;;;;5025961;28;19913;-84
2023/10/15 05:18:04;;;;;;;;;;;9.60;93.80;;;;;;5027618;28;19940;-84
2023/10/15 05:20:30;;;;;;;;;;;9.60;93.80;;;;;;5027290;28;19913;-81
2023/10/15 05:22:56;;;;;;;;;;;9.60;93.70;;;;;;5026589;28;19920;-80
2023/10/15 05:25:22;;;;;;;;;;;9.50;93.90;;;;;;5027262;28;19995;-83
2023/10/15 05:27:51;;;;;;;;;;;9.50;94.10;;;;;;5025460;28;20578;-82
2023/10/15 05:30:17;;;;;;;;;;;9.40;94.20;;;;;;5027080;28;19920;-83
2023/10/15 05:32:48;;;;;;;;;;;9.40;94.30;;;;;;5025820;28;19917;-82
2023/10/15 05:35:14;;;;;;;;;;;9.40;94.30;;;;;;5026694;28;19923;-82
2023/10/15 05:37:42;;;;;;;;;;;9.40;94.20;;;;;;5022959;28;20007;-81
2023/10/15 05:40:08;;;;;;;;;;;9.40;94.30;;;;;;5022265;28;19913;-80
2023/10/15 05:42:36;;;;;;;;;;;9.40;94.40;;;;;;5026689;28;19912;-83
2023/10/15 05:45:06;;;;;;;;;;;9.30;94.40;;;;;;5023788;28;19921;-83
2023/10/15 05:47:33;;;;;;;;;;;9.30;94.40;;;;;;5024267;28;20434;-84
2023/10/15 05:49:58;;;;;;;;;;;9.30;94.50;;;;;;5025257;28;20463;-84
2023/10/15 05:52:24;;;;;;;;;;;9.30;94.60;;;;;;5025643;28;19916;-83
2023/10/15 05:54:53;;;;;;;;;;;9.20;94.60;;;;;;5025926;28;20004;-83
2023/10/15 05:57:22;;;;;;;;;;;9.30;94.60;;;;;;5026016;28;19985;-84
2023/10/15 05:59:48;;;;;;;;;;;9.30;94.70;;;;;;5018301;28;19913;-83
2023/10/15 06:02:13;;;;;;;;;;;9.30;94.60;;;;;;5026289;28;19952;-84
2023/10/15 06:04:39;;;;;;;;;;;9.20;94.70;;;;;;5040454;28;20659;-87
2023/10/15 06:07:05;;;;;;;;;;;9.30;94.70;;;;;;5025589;28;19975;-85
2023/10/15 06:09:31;;;;;;;;;;;9.20;94.70;;;;;;5025484;28;19912;-85
2023/10/15 06:11:57;;;;;;;;;;;9.30;94.60;;;;;;5024955;28;20764;-87
2023/10/15 06:14:23;;;;;;;;;;;9.30;94.80;;;;;;5025333;28;19913;-83
2023/10/15 06:16:52;;;;;;;;;;;9.20;94.70;;;;;;5023864;28;19913;-83
2023/10/15 06:19:18;;;;;;;;;;;9.20;94.80;;;;;;5025024;28;19913;-82
2023/10/15 06:21:44;;;;;;;;;;;9.30;94.80;;;;;;5025626;28;20376;-82
2023/10/15 06:24:10;;;;;;;;;;;9.30;94.60;;;;;;5025750;28;19913;-82
2023/10/15 06:26:36;;;;;;;;;;;9.30;94.60;;;;;;5025993;28;19921;-83
2023/10/15 06:29:02;;;;;;;;;;;9.30;94.60;;;;;;5026602;28;20692;-83
2023/10/15 06:31:28;;;;;;;;;;;9.40;94.40;;;;;;5026299;28;19909;-83
2023/10/15 06:33:55;;;;;;;;;;;9.60;94.00;;;;;;5024231;28;19909;-84
2023/10/15 06:36:21;;;;;;;;;;;9.70;93.70;;;;;;5018752;28;19959;-81
2023/10/15 06:38:47;;;;;;;;;;;9.90;93.50;;;;;;5026443;28;19913;-81
2023/10/15 06:41:12;;;;;;;;;;;10.00;93.10;;;;;;5026415;28;19963;-81
2023/10/15 06:43:38;;;;;;;;;;;9.90;93.10;;;;;;5048428;28;19913;-81
2023/10/15 06:46:07;;;;;;;;;;;10.00;93.10;;;;;;5020163;28;19928;-78
2023/10/15 06:48:37;;;;;;;;;;;10.50;92.40;;;;;;5024892;28;19924;-78
2023/10/15 06:51:05;;;;;;;;;;;10.50;92.40;;;;;;5018636;28;19916;-80
2023/10/15 06:53:31;;;;;;;;;;;11.00;90.90;;;;;;5025797;28;20012;-78
2023/10/15 06:55:56;;;;;;;;;;;11.60;90.60;;;;;;5025365;28;19979;-79
2023/10/15 06:58:22;;;;;;;;;;;11.60;90.00;;;;;;5024326;28;19916;-80
2023/10/15 07:00:48;;;;;;;;;;;12.10;89.00;;;;;;5021870;28;19991;-80
2023/10/15 07:03:15;;;;;;;;;;;12.30;87.20;;;;;;5025598;28;20002;-81
2023/10/15 07:05:43;;;;;;;;;;;12.40;87.10;;;;;;5024898;28;19921;-80
2023/10/15 07:08:09;;;;;;;;;;;12.60;86.10;;;;;;5025018;28;19916;-80
2023/10/15 07:10:36;;;;;;;;;;;13.10;84.80;;;;;;5025518;28;20289;-81
2023/10/15 07:13:02;;;;;;;;;;;13.10;84.50;;;;;;5022804;28;19948;-81
2023/10/15 07:15:29;;;;;;;;;;;13.20;83.20;;;;;;5025105;28;20561;-80
2023/10/15 07:17:55;;;;;;;;;;;13.70;82.80;;;;;;5023107;28;20276;-80
2023/10/15 07:20:21;;;;;;;;;;;13.90;80.80;;;;;;5024642;28;19912;-83
2023/10/15 07:22:51;;;;;;;;;;;14.40;80.20;;;;;;5024975;28;19912;-80
2023/10/15 07:25:17;;;;;;;;;;;14.60;78.70;;;;;;5024482;28;20016;-81
2023/10/15 07:27:47;;;;;;;;;;;14.70;78.10;;;;;;5023867;28;19913;-80
2023/10/15 07:30:13;;;;;;;;;;;15.20;78.20;;;;;;5024449;28;20479;-81
2023/10/15 07:32:43;;;;;;;;;;;15.50;77.70;;;;;;5024174;28;19916;-79
2023/10/15 07:35:11;;;;;;;;;;;15.40;76.30;;;;;;5024806;28;19913;-80
2023/10/15 07:37:43;;;;;;;;;;;16.00;75.50;;;;;;5024804;28;19931;-80
2023/10/15 07:40:16;;;;;;;;;;;16.10;73.20;;;;;;5033401;28;20534;-79
2023/10/15 07:42:45;;;;;;;;;;;15.80;74.90;;;;;;5026406;28;19935;-83
2023/10/15 07:45:11;;;;;;;;;;;15.30;76.70;;;;;;5024636;28;19912;-80
2023/10/15 07:47:39;;;;;;;;;;;16.10;74.90;;;;;;5022824;28;19925;-79
2023/10/15 07:50:07;;;;;;;;;;;16.10;74.20;;;;;;5024509;28;19956;-77
2023/10/15 07:52:33;;;;;;;;;;;15.50;74.00;;;;;;5026070;28;19924;-82
2023/10/15 07:54:59;;;;;;;;;;;15.40;74.30;;;;;;5025750;28;19909;-79
2023/10/15 07:57:25;;;;;;;;;;;15.90;74.50;;;;;;5024841;28;19956;-79
2023/10/15 07:59:54;;;;;;;;;;;17.00;72.30;;;;;;5023702;28;19959;-80
2023/10/15 08:02:21;;;;;;;;;;;16.90;70.80;;;;;;5022723;28;20020;-78
2023/10/15 08:04:47;;;;;;;;;;;16.80;71.50;;;;;;5023935;28;20372;-83
2023/10/15 08:07:12;;;;;;;;;;;16.50;72.50;;;;;;5023061;28;20431;-82
2023/10/15 08:09:38;;;;;;;;;;;17.20;69.80;;;;;;5023345;28;19920;-81
2023/10/15 08:12:04;;;;;;;;;;;17.30;68.80;;;;;;5022358;28;20442;-82
2023/10/15 08:14:29;;;;;;;;;;;17.50;69.10;;;;;;5022751;28;19985;-81
2023/10/15 08:16:55;;;;;;;;;;;16.80;70.60;;;;;;5022370;28;19932;-82
2023/10/15 08:19:20;;;;;;;;;;;17.20;70.10;;;;;;5023235;28;19951;-82
2023/10/15 08:21:46;;;;;;;;;;;17.60;68.90;;;;;;5023200;28;19985;-82
2023/10/15 08:24:14;;;;;;;;;;;17.90;68.40;;;;;;5021575;28;19960;-83
2023/10/15 08:26:41;;;;;;;;;;;17.60;68.30;;;;;;5022947;28;19925;-83
2023/10/15 08:29:09;;;;;;;;;;;17.50;68.40;;;;;;5023049;28;19909;-83
2023/10/15 08:31:35;;;;;;;;;;;17.10;68.80;;;;;;5044928;28;20352;-83
2023/10/15 08:34:01;;;;;;;;;;;17.00;68.60;;;;;;5024682;28;19955;-83
2023/10/15 08:36:26;;;;;;;;;;;16.90;68.80;;;;;;5023112;28;19936;-84
2023/10/15 08:38:52;;;;;;;;;;;16.80;68.00;;;;;;5023775;28;19936;-83
2023/10/15 08:41:20;;;;;;;;;;;17.60;68.10;;;;;;5018221;28;19952;-84
2023/10/15 08:43:46;;;;;;;;;;;17.20;67.80;;;;;;5024209;28;19912;-83
2023/10/15 08:46:12;;;;;;;;;;;16.70;68.00;;;;;;5023531;28;19932;-84
2023/10/15 08:48:39;;;;;;;;;;;17.20;68.50;;;;;;5023655;28;20331;-83
2023/10/15 08:51:05;;;;;;;;;;;16.80;67.10;;;;;;5030455;28;19908;-84
2023/10/15 08:53:31;;;;;;;;;;;16.80;67.30;;;;;;5022970;28;20360;-84
2023/10/15 08:56:01;;;;;;;;;;;16.60;69.60;;;;;;5023568;28;19909;-84
2023/10/15 08:58:27;;;;;;;;;;;16.70;67.40;;;;;;5021548;28;20563;-84
2023/10/15 09:00:57;;;;;;;;;;;17.20;67.00;;;;;;5027047;28;20288;-84
2023/10/15 09:03:23;;;;;;;;;;;16.90;66.70;;;;;;5022932;28;19917;-84
2023/10/15 09:05:52;;;;;;;;;;;16.40;67.70;;;;;;5022816;28;20015;-85
2023/10/15 09:08:19;;;;;;;;;;;16.80;66.60;;;;;;5022829;28;19986;-83
2023/10/15 09:10:45;;;;;;;;;;;16.90;66.70;;;;;;5022464;28;19920;-84
2023/10/15 09:13:18;;;;;;;;;;;16.60;67.10;;;;;;5021876;28;19913;-84
2023/10/15 09:15:47;;;;;;;;;;;17.40;66.20;;;;;;5023294;28;19916;-83
2023/10/15 09:18:15;;;;;;;;;;;17.10;64.50;;;;;;5023011;28;19913;-84
2023/10/15 09:20:43;;;;;;;;;;;16.90;64.40;;;;;;5022778;28;19944;-84
2023/10/15 09:23:09;;;;;;;;;;;17.10;64.20;;;;;;5022259;28;19916;-85
2023/10/15 09:25:35;;;;;;;;;;;17.40;64.00;;;;;;5022727;28;19921;-85
2023/10/15 09:28:00;;;;;;;;;;;16.80;62.70;;;;;;5023108;28;20454;-84
2023/10/15 09:30:27;;;;;;;;;;;16.40;62.90;;;;;;5022265;28;20820;-84
2023/10/15 09:32:54;;;;;;;;;;;16.30;63.10;;;;;;5019149;28;19946;-83
2023/10/15 09:35:20;;;;;;;;;;;16.30;63.30;;;;;;5022042;28;19913;-83
2023/10/15 09:37:46;;;;;;;;;;;16.00;61.20;;;;;;5020498;28;19920;-83
2023/10/15 09:40:19;;;;;;;;;;;16.30;62.60;;;;;;5017063;28;20435;-83
2023/10/15 09:42:45;;;;;;;;;;;16.60;62.40;;;;;;5022186;28;19913;-84
2023/10/15 09:45:15;;;;;;;;;;;16.40;60.70;;;;;;5022894;28;19944;-86
2023/10/15 09:47:48;;;;;;;;;;;16.40;60.10;;;;;;5022831;28;20020;-84
2023/10/15 09:50:16;;;;;;;;;;;16.70;60.70;;;;;;5022671;28;19917;-84
2023/10/15 09:52:44;;;;;;;;;;;16.40;57.90;;;;;;5023901;28;19921;-84
2023/10/15 09:55:11;;;;;;;;;;;16.10;59.10;;;;;;5026364;28;19982;-84
2023/10/15 09:57:38;;;;;;;;;;;16.40;59.00;;;;;;5022049;28;20003;-83
2023/10/15 10:00:09;;;;;;;;;;;16.50;59.40;;;;;;5025041;28;20339;-84
2023/10/15 10:02:39;;;;;;;;;;;16.70;60.00;;;;;;5024895;28;19924;-82
2023/10/15 10:05:17;;;;;;;;;;;16.50;59.90;;;;;;5024993;28;19956;-83
2023/10/15 10:07:50;;;;;;;;;;;16.30;59.50;;;;;;5032749;28;20721;-82
2023/10/15 10:10:17;;;;;;;;;;;16.60;58.50;;;;;;5027494;28;19913;-82
2023/10/15 10:12:46;;;;;;;;;;;16.80;60.70;;;;;;5028318;28;19917;-82
2023/10/15 10:15:17;;;;;;;;;;;16.80;59.20;;;;;;5024375;28;20291;-83
2023/10/15 10:17:43;;;;;;;;;;;16.70;59.90;;;;;;5024279;28;19912;-83
2023/10/15 10:20:11;;;;;;;;;;;17.20;60.00;;;;;;5025082;28;20402;-84
2023/10/15 10:22:37;;;;;;;;;;;17.10;59.10;;;;;;5024642;28;19944;-84
2023/10/15 10:25:03;;;;;;;;;;;16.90;58.90;;;;;;5025321;28;19958;-83
2023/10/15 10:27:39;;;;;;;;;;;16.70;58.50;;;;;;5024390;28;19913;-83
2023/10/15 10:30:21;;;;;;;;;;;16.60;58.70;;;;;;5025147;28;19913;-83
2023/10/15 10:32:48;;;;;;;;;;;17.10;58.30;;;;;;5023676;28;20453;-83
2023/10/15 10:35:22;;;;;;;;;;;16.90;56.20;;;;;;5023291;28;19913;-83
2023/10/15 10:38:00;;;;;;;;;;;16.90;57.30;;;;;;5023069;28;19909;-83
2023/10/15 10:40:46;;;;;;;;;;;17.00;56.70;;;;;;5024866;28;19919;-83
2023/10/15 10:43:27;;;;;;;;;;;16.80;57.00;;;;;;5019956;28;19928;-83
2023/10/15 10:46:00;;;;;;;;;;;17.20;56.50;;;;;;5024681;28;19921;-84
2023/10/15 10:48:29;;;;;;;;;;;17.40;57.70;;;;;;5025235;28;19924;-83
2023/10/15 10:51:15;;;;;;;;;;;17.40;56.60;;;;;;5024973;28;20069;-83
2023/10/15 10:53:56;;;;;;;;;;;17.00;56.80;;;;;;5025216;28;19916;-84
2023/10/15 10:56:44;;;;;;;;;;;17.00;57.40;;;;;;5024743;28;19908;-84
2023/10/15 10:59:13;;;;;;;;;;;16.90;57.50;;;;;;5021163;28;20003;-84
2023/10/15 11:01:40;;;;;;;;;;;16.50;56.80;;;;;;5021352;28;19963;-84
2023/10/15 11:04:09;;;;;;;;;;;16.70;57.80;;;;;;5027473;28;19912;-84
2023/10/15 11:06:39;;;;;;;;;;;17.00;57.10;;;;;;5022396;28;19917;-83
2023/10/15 11:09:15;;;;;;;;;;;16.70;57.60;;;;;;5024400;28;19944;-84
2023/10/15 11:11:51;;;;;;;;;;;16.90;59.50;;;;;;5024789;28;19917;-84
2023/10/15 11:14:18;;;;;;;;;;;16.90;57.50;;;;;;5021968;28;19917;-83
2023/10/15 11:16:44;;;;;;;;;;;17.00;57.20;;;;;;5024366;28;19952;-84
2023/10/15 11:19:34;;;;;;;;;;;17.00;56.80;;;;;;5019856;28;19920;-83
2023/10/15 11:22:01;;;;;;;;;;;16.70;56.80;;;;;;5024366;28;19913;-84
2023/10/15 11:24:27;;;;;;;;;;;16.30;56.00;;;;;;5023894;28;19984;-83
2023/10/15 11:26:54;;;;;;;;;;;16.30;56.00;;;;;;5024385;28;20086;-83
2023/10/15 11:29:22;;;;;;;;;;;16.30;55.20;;;;;;5023506;28;19913;-83
2023/10/15 11:31:48;;;;;;;;;;;16.30;56.20;;;;;;5024121;28;19913;-84
2023/10/15 11:34:22;;;;;;;;;;;16.50;57.10;;;;;;5022476;28;20000;-84
2023/10/15 11:36:48;;;;;;;;;;;16.60;56.00;;;;;;5023075;28;19909;-84
2023/10/15 11:39:37;;;;;;;;;;;16.50;57.70;;;;;;5023706;28;20335;-84
2023/10/15 11:42:03;;;;;;;;;;;16.60;58.00;;;;;;5023531;28;19917;-84
2023/10/15 11:44:32;;;;;;;;;;;16.60;56.40;;;;;;5024417;28;19917;-83
2023/10/15 11:47:00;;;;;;;;;;;16.50;56.90;;;;;;5023585;28;19914;-84
2023/10/15 11:49:26;;;;;;;;;;;16.20;55.90;;;;;;5015033;28;19940;-84
2023/10/15 11:51:55;;;;;;;;;;;16.30;56.00;;;;;;5023975;28;19963;-84
2023/10/15 11:54:26;;;;;;;;;;;16.10;55.60;;;;;;5023713;28;19919;-84
2023/10/15 11:56:54;;;;;;;;;;;15.90;55.10;;;;;;5020673;28;21416;-83
2023/10/15 11:59:21;;;;;;;;;;;15.90;54.80;;;;;;5019313;28;19913;-83
2023/10/15 12:01:51;;;;;;;;;;;15.90;57.40;;;;;;5016817;28;19913;-84
2023/10/15 12:04:19;;;;;;;;;;;16.00;55.60;;;;;;5023319;28;19913;-84
2023/10/15 12:06:45;;;;;;;;;;;16.00;55.80;;;;;;5022715;28;19920;-83
2023/10/15 12:09:16;;;;;;;;;;;16.10;55.90;;;;;;5017500;28;19909;-81
2023/10/15 12:11:42;;;;;;;;;;;16.20;57.00;;;;;;5021723;28;19917;-81
2023/10/15 12:14:08;;;;;;;;;;;16.00;56.60;;;;;;5023015;28;19913;-82
2023/10/15 12:16:39;;;;;;;;;;;15.90;55.10;;;;;;5023711;28;19909;-85
2023/10/15 12:19:06;;;;;;;;;;;16.10;56.30;;;;;;5023321;28;20261;-85
2023/10/15 12:21:31;;;;;;;;;;;16.00;55.30;;;;;;5022473;28;19909;-86
2023/10/15 12:23:58;;;;;;;;;;;16.10;55.40;;;;;;5023793;28;20364;-86
2023/10/15 12:26:23;;;;;;;;;;;16.30;55.40;;;;;;5024226;28;19928;-88
2023/10/15 12:28:51;;;;;;;;;;;16.40;55.40;;;;;;5024178;28;20432;-86
2023/10/15 12:31:17;;;;;;;;;;;16.90;55.30;;;;;;5022573;28;19913;-84
2023/10/15 12:33:43;;;;;;;;;;;17.10;54.30;;;;;;5021901;28;19920;-85
2023/10/15 12:36:09;;;;;;;;;;;17.20;53.40;;;;;;5022714;28;20381;-86
2023/10/15 12:38:38;;;;;;;;;;;17.30;52.70;;;;;;5023502;28;19913;-85
2023/10/15 12:41:05;;;;;;;;;;;17.20;51.50;;;;;;5021988;28;19913;-83
2023/10/15 12:43:31;;;;;;;;;;;16.80;51.90;;;;;;5023828;28;19917;-84
2023/10/15 12:45:57;;;;;;;;;;;16.30;52.50;;;;;;5022917;28;19964;-83
2023/10/15 12:48:22;;;;;;;;;;;16.10;52.70;;;;;;5021919;28;20016;-86
2023/10/15 12:50:48;;;;;;;;;;;16.20;54.20;;;;;;5022868;28;19913;-85
2023/10/15 12:53:15;;;;;;;;;;;16.10;52.60;;;;;;5023409;28;19944;-85
2023/10/15 12:55:40;;;;;;;;;;;16.00;53.00;;;;;;5022024;28;20483;-84
2023/10/15 12:58:09;;;;;;;;;;;16.00;53.00;;;;;;5022860;28;20586;-86
2023/10/15 13:00:39;;;;;;;;;;;16.00;52.60;;;;;;5021509;28;19917;-85
2023/10/15 13:03:05;;;;;;;;;;;16.10;53.40;;;;;;5021639;28;19920;-84
2023/10/15 13:05:31;;;;;;;;;;;16.20;54.00;;;;;;5022819;28;19917;-84
2023/10/15 13:07:56;;;;;;;;;;;16.10;52.90;;;;;;5022271;28;19923;-85
2023/10/15 13:10:22;;;;;;;;;;;16.00;51.20;;;;;;5022973;28;19917;-85
2023/10/15 13:12:48;;;;;;;;;;;16.00;51.80;;;;;;5022538;28;19913;-85
2023/10/15 13:15:16;;;;;;;;;;;16.10;53.30;;;;;;5022155;28;19913;-84
2023/10/15 13:17:41;;;;;;;;;;;16.10;53.40;;;;;;5022246;28;19917;-87
2023/10/15 13:20:11;;;;;;;;;;;16.00;52.50;;;;;;5022881;28;19920;-83
2023/10/15 13:22:36;;;;;;;;;;;16.00;52.90;;;;;;5020770;28;19912;-84
2023/10/15 13:25:02;;;;;;;;;;;16.00;52.70;;;;;;5022751;28;20674;-82
2023/10/15 13:27:28;;;;;;;;;;;15.80;51.50;;;;;;5025502;28;20368;-83
2023/10/15 13:29:53;;;;;;;;;;;15.80;51.40;;;;;;5025694;28;19917;-82
2023/10/15 13:32:20;;;;;;;;;;;15.90;52.20;;;;;;5026349;28;19913;-80
2023/10/15 13:34:45;;;;;;;;;;;15.90;51.60;;;;;;5026081;28;19920;-80
2023/10/15 13:37:12;;;;;;;;;;;16.00;52.40;;;;;;5025541;28;20276;-80
2023/10/15 13:39:38;;;;;;;;;;;15.90;51.40;;;;;;5026199;28;20402;-80
2023/10/15 13:42:05;;;;;;;;;;;15.90;52.90;;;;;;5027389;28;19908;-81
2023/10/15 13:44:31;;;;;;;;;;;16.00;53.20;;;;;;5027029;28;19920;-81
2023/10/15 13:46:56;;;;;;;;;;;15.90;51.80;;;;;;5026213;28;20605;-81
2023/10/15 13:49:22;;;;;;;;;;;15.90;51.80;;;;;;5026918;28;20080;-81
2023/10/15 13:51:49;;;;;;;;;;;15.70;51.50;;;;;;5027090;28;19909;-81
2023/10/15 13:54:14;;;;;;;;;;;15.70;51.60;;;;;;5026626;28;19913;-80
2023/10/15 13:56:41;;;;;;;;;;;15.80;52.20;;;;;;5026830;28;19913;-80
2023/10/15 13:59:07;;;;;;;;;;;15.80;51.30;;;;;;5027250;28;19909;-80
2023/10/15 14:01:34;;;;;;;;;;;16.00;51.80;;;;;;5026671;28;19913;-80
2023/10/15 14:04:06;;;;;;;;;;;16.00;52.10;;;;;;5026331;28;19936;-80
2023/10/15 14:06:35;;;;;;;;;;;15.90;51.70;;;;;;5026395;28;19921;-80
2023/10/15 14:09:00;;;;;;;;;;;16.00;51.30;;;;;;5026534;28;19909;-81
2023/10/15 14:11:27;;;;;;;;;;;16.00;51.30;;;;;;5026252;28;19931;-80
2023/10/15 14:13:52;;;;;;;;;;;15.90;51.80;;;;;;5026512;28;20296;-81
2023/10/15 14:16:18;;;;;;;;;;;15.90;52.80;;;;;;5025927;28;19992;-80
2023/10/15 14:18:44;;;;;;;;;;;15.80;51.90;;;;;;5026441;28;19976;-80
2023/10/15 14:21:10;;;;;;;;;;;15.70;51.80;;;;;;5026150;28;19954;-80
2023/10/15 14:23:36;;;;;;;;;;;15.80;52.40;;;;;;5026005;28;19909;-80
2023/10/15 14:26:03;;;;;;;;;;;15.80;52.10;;;;;;5021376;28;20140;-80
2023/10/15 14:28:28;;;;;;;;;;;15.80;52.00;;;;;;5026432;28;19962;-80
2023/10/15 14:30:54;;;;;;;;;;;15.90;52.40;;;;;;5026546;28;19913;-80
2023/10/15 14:33:20;;;;;;;;;;;16.00;51.00;;;;;;5026254;28;19917;-80
2023/10/15 14:35:46;;;;;;;;;;;16.00;50.60;;;;;;5026507;28;19913;-78
2023/10/15 14:38:11;;;;;;;;;;;16.10;51.30;;;;;;5025500;28;20020;-85
2023/10/15 14:40:38;;;;;;;;;;;16.10;50.90;;;;;;5025256;28;19990;-83
2023/10/15 14:43:04;;;;;;;;;;;16.20;50.90;;;;;;5024833;28;19948;-83
2023/10/15 14:45:30;;;;;;;;;;;16.20;50.50;;;;;;5024588;28;20011;-83
2023/10/15 14:47:55;;;;;;;;;;;16.30;51.90;;;;;;5025816;28;20265;-83